Time;durP1;ratioP1;P1;durP2;ratioP2;P2;SDS_P1;SDS_P2;PMS_P1;PMS_P2;Temp;Humidity;BMP_temperature;BMP_pressure;BME280_temperature;BME280_humidity;BME280_pressure;Samples;Min_cycle;Max_cycle;Signal;HPM_P1;HPM_P2
2022/12/31 00:00:45;;;;;;;;;;;;;;;16.30;57.01;99599.63;7252962;19;154590;-58
2022/12/31 00:03:12;;;;;;;;;;;;;;;16.31;57.13;99611.56;7261044;19;154842;-58
2022/12/31 00:05:39;;;;;;;;;;;;;;;16.30;57.17;99616.34;7253696;19;153537;-58
2022/12/31 00:08:06;;;;;;;;;;;;;;;16.29;57.30;99628.63;7252772;19;155679;-58
2022/12/31 00:10:40;;;;;;;;;;;;;;;16.30;57.32;99626.66;7250666;19;154370;-58
2022/12/31 00:13:08;;;;;;;;;;;;;;;16.29;57.03;99617.47;7254914;19;154182;-58
2022/12/31 00:15:35;;;;;;;;;;;;;;;16.30;57.36;99621.09;7251442;19;154721;-58
2022/12/31 00:18:02;;;;;;;;;;;;;;;16.29;57.06;99605.50;7255700;19;153834;-58
2022/12/31 00:20:29;;;;;;;;;;;;;;;16.29;57.28;99608.28;7253622;19;154547;-58
2022/12/31 00:22:56;;;;;;;;;;;;;;;16.28;57.63;99609.44;7259650;19;154674;-58
2022/12/31 00:25:23;;;;;;;;;;;;;;;16.28;57.48;99626.97;7252307;19;155245;-58
2022/12/31 00:27:49;;;;;;;;;;;;;;;16.28;57.52;99640.91;7251634;19;155190;-58
2022/12/31 00:30:16;;;;;;;;;;;;;;;16.27;57.50;99632.84;7253278;19;153406;-58
2022/12/31 00:32:43;;;;;;;;;;;;;;;16.26;57.38;99628.44;7254199;19;153340;-58
2022/12/31 00:35:10;;;;;;;;;;;;;;;16.26;57.29;99618.09;7251619;19;153782;-58
2022/12/31 00:37:37;;;;;;;;;;;;;;;16.26;57.55;99620.88;7254723;19;154213;-58
2022/12/31 00:40:04;;;;;;;;;;;;;;;16.26;57.71;99622.88;7252028;19;153601;-58
2022/12/31 00:42:31;;;;;;;;;;;;;;;16.25;57.90;99619.25;7254551;19;153910;-58
2022/12/31 00:44:58;;;;;;;;;;;;;;;16.25;57.56;99624.00;7260202;19;152844;-58
2022/12/31 00:47:25;;;;;;;;;;;;;;;16.24;57.42;99631.53;7251434;19;153847;-58
2022/12/31 00:49:52;;;;;;;;;;;;;;;16.24;57.62;99634.31;7252139;19;153938;-58
2022/12/31 00:52:18;;;;;;;;;;;;;;;16.23;57.66;99641.00;7249191;19;153741;-58
2022/12/31 00:54:45;;;;;;;;;;;;;;;16.23;57.98;99642.97;7251799;19;153344;-58
2022/12/31 00:57:12;;;;;;;;;;;;;;;16.23;57.57;99643.81;7253552;19;153918;-58
2022/12/31 00:59:39;;;;;;;;;;;;;;;16.23;57.78;99643.81;7252240;19;154010;-58
2022/12/31 01:02:06;;;;;;;;;;;;;;;16.23;57.69;99631.81;7254646;19;154338;-58
2022/12/31 01:04:33;;;;;;;;;;;;;;;16.21;58.00;99637.72;7255909;19;154040;-58
2022/12/31 01:07:00;;;;;;;;;;;;;;;16.22;57.75;99635.75;7254747;19;154383;-58
2022/12/31 01:09:26;;;;;;;;;;;;;;;16.22;57.72;99641.31;7248574;19;153762;-58
2022/12/31 01:11:53;;;;;;;;;;;;;;;16.21;58.14;99631.34;7249823;19;153538;-58
2022/12/31 01:14:20;;;;;;;;;;;;;;;16.21;57.95;99634.94;7250437;19;152454;-58
2022/12/31 01:16:49;;;;;;;;;;;;;;;16.19;57.95;99626.06;7251473;19;154309;-58
2022/12/31 01:19:17;;;;;;;;;;;;;;;16.20;57.80;99604.59;7251999;19;154091;-58
2022/12/31 01:21:45;;;;;;;;;;;;;;;16.19;58.06;99598.19;7246765;19;154359;-58
2022/12/31 01:24:12;;;;;;;;;;;;;;;16.21;58.03;99603.47;7249405;19;154531;-58
2022/12/31 01:26:39;;;;;;;;;;;;;;;16.20;57.91;99604.59;7251693;19;153397;-58
2022/12/31 01:29:07;;;;;;;;;;;;;;;16.20;58.10;99604.59;7257761;19;154075;-58
2022/12/31 01:31:35;;;;;;;;;;;;;;;16.19;57.80;99598.19;7252158;19;154454;-58
2022/12/31 01:34:02;;;;;;;;;;;;;;;16.19;57.95;99612.13;7250719;19;153255;-58
2022/12/31 01:36:30;;;;;;;;;;;;;;;16.17;58.01;99621.94;7250209;19;153909;-58
2022/12/31 01:38:59;;;;;;;;;;;;;;;16.16;58.02;99640.63;7248743;19;152224;-58
2022/12/31 01:41:27;;;;;;;;;;;;;;;16.16;57.92;99643.41;7249990;19;153895;-58
2022/12/31 01:43:57;;;;;;;;;;;;;;;16.15;58.40;99644.53;7252349;19;154755;-58
2022/12/31 01:46:34;;;;;;;;;;;;;;;16.15;58.20;99625.03;7250576;19;153244;-58
2022/12/31 01:49:05;;;;;;;;;;;;;;;16.14;58.23;99617.81;7249948;19;154534;-58
2022/12/31 01:51:33;;;;;;;;;;;;;;;16.14;58.15;99628.94;7255547;19;154740;-58
2022/12/31 01:54:01;;;;;;;;;;;;;;;16.14;58.20;99644.84;7249566;19;156322;-58
2022/12/31 01:56:28;;;;;;;;;;;;;;;16.13;58.33;99646.78;7250482;19;154379;-58
2022/12/31 01:58:55;;;;;;;;;;;;;;;16.14;58.15;99639.28;7251508;19;153393;-58
2022/12/31 02:01:25;;;;;;;;;;;;;;;16.14;58.07;99633.69;7251342;19;154895;-58
2022/12/31 02:03:52;;;;;;;;;;;;;;;16.13;58.19;99632.88;7250539;19;154539;-58
2022/12/31 02:06:20;;;;;;;;;;;;;;;16.12;58.28;99631.25;7249463;19;154650;-58
2022/12/31 02:08:47;;;;;;;;;;;;;;;16.12;58.39;99631.25;7249495;19;153673;-58
2022/12/31 02:11:19;;;;;;;;;;;;;;;16.12;58.54;99625.66;7248245;19;152772;-58
2022/12/31 02:13:46;;;;;;;;;;;;;;;16.12;58.29;99634.03;7253446;19;154662;-58
2022/12/31 02:16:19;;;;;;;;;;;;;;;16.11;58.62;99637.94;7247476;19;153841;-58
2022/12/31 02:18:56;;;;;;;;;;;;;;;16.12;58.21;99633.19;7250397;19;153919;-58
2022/12/31 02:21:23;;;;;;;;;;;;;;;16.11;58.10;99629.59;7245695;19;152995;-58
2022/12/31 02:24:03;;;;;;;;;;;;;;;16.11;58.29;99632.38;7247760;19;154276;-58
2022/12/31 02:26:29;;;;;;;;;;;;;;;16.10;58.32;99622.34;7246241;19;154114;-58
2022/12/31 02:29:16;;;;;;;;;;;;;;;16.11;58.40;99637.13;7248658;19;154378;-58
2022/12/31 02:31:46;;;;;;;;;;;;;;;16.09;58.58;99629.06;7248984;19;153814;-58
2022/12/31 02:34:23;;;;;;;;;;;;;;;16.10;58.54;99624.31;7258246;19;153602;-58
2022/12/31 02:36:51;;;;;;;;;;;;;;;16.09;58.45;99629.06;7243131;19;153735;-58
2022/12/31 02:39:18;;;;;;;;;;;;;;;16.09;58.38;99637.41;7251637;19;154626;-58
2022/12/31 02:41:50;;;;;;;;;;;;;;;16.09;58.65;99647.72;7250494;19;153698;-58
2022/12/31 02:44:27;;;;;;;;;;;;;;;16.08;58.24;99638.53;7253211;19;153793;-58
2022/12/31 02:47:02;;;;;;;;;;;;;;;16.09;58.65;99629.06;7249228;19;153619;-58
2022/12/31 02:49:38;;;;;;;;;;;;;;;16.09;58.48;99644.94;7248736;19;152932;-58
2022/12/31 02:52:05;;;;;;;;;;;;;;;16.08;58.55;99646.91;7245979;19;154773;-58
2022/12/31 02:54:38;;;;;;;;;;;;;;;16.07;58.52;99647.22;7250236;19;154765;-58
2022/12/31 02:57:08;;;;;;;;;;;;;;;16.06;58.32;99649.19;7257199;19;153417;-58
2022/12/31 03:02:21;;;;;;;;;;;;;;;16.07;58.55;99650.84;7249646;19;155402;-58
2022/12/31 03:04:50;;;;;;;;;;;;;;;16.06;58.58;99654.75;7250879;19;154526;-58
2022/12/31 03:07:20;;;;;;;;;;;;;;;16.06;58.73;99646.41;7246603;19;153794;-58
2022/12/31 03:09:47;;;;;;;;;;;;;;;16.06;58.63;99648.34;7246663;19;154548;-58
2022/12/31 03:14:50;;;;;;;;;;;;;;;16.05;58.53;99641.13;7247932;19;154181;-58
2022/12/31 03:17:17;;;;;;;;;;;;;;;16.04;58.53;99631.94;7248991;19;155075;-58
2022/12/31 03:22:30;;;;;;;;;;;;;;;16.03;58.71;99611.63;7241605;19;153233;-58
2022/12/31 03:27:36;;;;;;;;;;;;;;;16.03;58.52;99613.59;7247635;19;155758;-58
2022/12/31 03:30:03;;;;;;;;;;;;;;;16.02;58.65;99603.59;7246742;19;154274;-58
2022/12/31 03:32:30;;;;;;;;;;;;;;;16.02;59.00;99600.81;7248836;19;152618;-58
2022/12/31 03:34:57;;;;;;;;;;;;;;;16.02;58.87;99595.22;7252672;19;153702;-58
2022/12/31 03:37:24;;;;;;;;;;;;;;;16.02;58.74;99581.31;7251323;19;155783;-58
2022/12/31 03:39:50;;;;;;;;;;;;;;;16.01;58.65;99580.47;7256492;19;153613;-58
2022/12/31 03:42:17;;;;;;;;;;;;;;;16.01;58.61;99583.25;7261366;19;153664;-58
2022/12/31 03:44:44;;;;;;;;;;;;;;;16.01;58.80;99588.84;7256181;19;154574;-58
2022/12/31 03:47:10;;;;;;;;;;;;;;;16.01;58.87;99568.50;7254437;19;153798;-58
2022/12/31 03:49:37;;;;;;;;;;;;;;;16.02;58.74;99559.03;7254075;19;155464;-58
2022/12/31 03:52:05;;;;;;;;;;;;;;;16.00;58.81;99562.09;7252260;19;153788;-58
2022/12/31 03:54:32;;;;;;;;;;;;;;;16.00;59.00;99562.09;7255767;19;155049;-58
2022/12/31 03:56:58;;;;;;;;;;;;;;;15.99;58.99;99554.06;7252549;19;155172;-58
2022/12/31 03:59:25;;;;;;;;;;;;;;;15.99;59.12;99563.25;7256383;19;154125;-58
2022/12/31 04:01:52;;;;;;;;;;;;;;;15.99;59.18;99554.06;7253793;19;155855;-58
2022/12/31 04:04:19;;;;;;;;;;;;;;;15.98;59.13;99542.13;7261853;19;154540;-58
2022/12/31 04:06:46;;;;;;;;;;;;;;;15.99;59.12;99538.16;7252566;19;154792;-58
2022/12/31 04:09:12;;;;;;;;;;;;;;;15.98;59.33;99530.97;7249314;19;153920;-58
2022/12/31 04:11:39;;;;;;;;;;;;;;;15.97;59.51;99512.59;7254576;19;154127;-58
2022/12/31 04:14:06;;;;;;;;;;;;;;;15.98;59.54;99499.50;7255185;19;152865;-58
2022/12/31 04:16:32;;;;;;;;;;;;;;;15.97;59.39;99498.69;7254113;19;154288;-58
2022/12/31 04:18:59;;;;;;;;;;;;;;;15.97;59.31;99490.31;7255043;19;153626;-58
2022/12/31 04:21:26;;;;;;;;;;;;;;;15.97;59.53;99507.03;7250805;19;153399;-58
2022/12/31 04:24:00;;;;;;;;;;;;;;;15.96;59.51;99498.97;7253637;19;153939;-58
2022/12/31 04:26:27;;;;;;;;;;;;;;;15.95;59.60;99495.38;7261258;19;152016;-58
2022/12/31 04:28:54;;;;;;;;;;;;;;;15.95;59.69;99498.16;7248995;19;154265;-58
2022/12/31 04:31:20;;;;;;;;;;;;;;;15.95;59.46;99505.69;7255124;19;153833;-58
2022/12/31 04:33:47;;;;;;;;;;;;;;;15.95;59.60;99519.59;7254199;19;154349;-58
2022/12/31 04:36:14;;;;;;;;;;;;;;;15.95;59.59;99505.69;7250243;19;154079;-58
2022/12/31 04:38:40;;;;;;;;;;;;;;;15.95;59.86;99522.41;7253583;19;154751;-58
2022/12/31 04:43:45;;;;;;;;;;;;;;;15.95;59.93;99522.41;7253074;19;154039;-58
2022/12/31 04:46:13;;;;;;;;;;;;;;;15.94;60.06;99513.22;7259379;19;153974;-57
2022/12/31 04:48:40;;;;;;;;;;;;;;;15.94;60.15;99523.56;7251419;19;153317;-58
2022/12/31 04:51:06;;;;;;;;;;;;;;;15.95;60.03;99530.75;7251780;19;152667;-58
2022/12/31 04:53:33;;;;;;;;;;;;;;;15.93;60.23;99525.50;7253063;19;154605;-58
2022/12/31 04:56:00;;;;;;;;;;;;;;;15.94;60.45;99527.13;7252985;19;153666;-58
2022/12/31 04:58:27;;;;;;;;;;;;;;;15.94;60.17;99520.78;7253669;19;153271;-58
2022/12/31 05:00:54;;;;;;;;;;;;;;;15.94;60.43;99518.78;7254583;19;152828;-58
2022/12/31 05:03:21;;;;;;;;;;;;;;;15.95;60.46;99539.09;7250682;19;154173;-58
2022/12/31 05:05:48;;;;;;;;;;;;;;;15.94;60.79;99520.78;7252469;19;154503;-58
2022/12/31 05:08:16;;;;;;;;;;;;;;;15.94;60.87;99517.97;7257549;19;153627;-58
2022/12/31 05:10:44;;;;;;;;;;;;;;;15.95;60.92;99522.41;7253141;19;153567;-58
2022/12/31 05:13:11;;;;;;;;;;;;;;;15.95;61.03;99530.75;7250167;19;154184;-58
2022/12/31 05:15:39;;;;;;;;;;;;;;;15.94;60.71;99532.72;7252356;19;154214;-58
2022/12/31 05:18:06;;;;;;;;;;;;;;;15.96;61.13;99535.19;7253756;19;154771;-58
2022/12/31 05:20:32;;;;;;;;;;;;;;;15.95;60.94;99528.78;7252254;19;154557;-58
2022/12/31 05:22:59;;;;;;;;;;;;;;;15.95;61.31;99531.56;7250755;19;155532;-58
2022/12/31 05:25:26;;;;;;;;;;;;;;;15.95;61.42;99533.53;7253289;19;152443;-58
2022/12/31 05:27:53;;;;;;;;;;;;;;;15.96;61.39;99526.84;7250267;19;153391;-58
2022/12/31 05:30:19;;;;;;;;;;;;;;;15.95;61.64;99531.56;7258614;19;153353;-58
2022/12/31 05:32:46;;;;;;;;;;;;;;;15.96;61.47;99524.88;7253517;19;154900;-58
2022/12/31 05:35:13;;;;;;;;;;;;;;;15.96;61.66;99540.75;7249668;19;153388;-58
2022/12/31 05:37:40;;;;;;;;;;;;;;;15.95;61.43;99548.28;7250332;19;153104;-58
2022/12/31 05:40:07;;;;;;;;;;;;;;;15.96;61.71;99536.03;7248730;19;153695;-58
2022/12/31 05:42:34;;;;;;;;;;;;;;;15.96;61.76;99532.41;7251631;19;154304;-58
2022/12/31 05:45:01;;;;;;;;;;;;;;;15.96;61.92;99544.38;7251802;19;153286;-58
2022/12/31 05:47:27;;;;;;;;;;;;;;;15.97;61.94;99542.41;7252672;19;153049;-58
2022/12/31 05:49:54;;;;;;;;;;;;;;;15.97;61.54;99539.63;7248851;19;153543;-58
2022/12/31 05:52:21;;;;;;;;;;;;;;;15.98;61.59;99541.28;7258506;19;153630;-57
2022/12/31 05:54:47;;;;;;;;;;;;;;;15.97;61.67;99546.03;7249915;19;155790;-58
2022/12/31 05:57:14;;;;;;;;;;;;;;;15.97;61.93;99554.38;7251135;19;156341;-58
2022/12/31 05:59:41;;;;;;;;;;;;;;;15.99;61.82;99556.84;7249872;19;153916;-58
2022/12/31 06:02:07;;;;;;;;;;;;;;;15.99;61.95;99551.25;7250298;19;154101;-58
2022/12/31 06:04:34;;;;;;;;;;;;;;;15.98;62.16;99567.19;7252236;19;154374;-58
2022/12/31 06:07:01;;;;;;;;;;;;;;;15.98;61.99;99569.16;7243999;19;152542;-58
2022/12/31 06:09:27;;;;;;;;;;;;;;;15.98;62.07;99583.91;7249086;19;154442;-58
2022/12/31 06:11:54;;;;;;;;;;;;;;;15.98;62.11;99597.81;7251484;19;154321;-58
2022/12/31 06:14:21;;;;;;;;;;;;;;;15.99;62.27;99590.25;7257592;19;153999;-58
2022/12/31 06:16:47;;;;;;;;;;;;;;;15.98;62.48;99595.03;7252654;19;153675;-58
2022/12/31 06:19:14;;;;;;;;;;;;;;;15.99;62.45;99598.63;7252388;19;154901;-58
2022/12/31 06:21:40;;;;;;;;;;;;;;;15.99;62.33;99595.84;7247316;19;153293;-58
2022/12/31 06:24:07;;;;;;;;;;;;;;;16.00;62.60;99609.47;7246657;19;153300;-58
2022/12/31 06:26:34;;;;;;;;;;;;;;;16.01;62.31;99599.16;7250145;19;153421;-58
2022/12/31 06:29:00;;;;;;;;;;;;;;;16.01;62.31;99621.44;7249305;19;154865;-58
2022/12/31 06:31:27;;;;;;;;;;;;;;;16.01;62.42;99604.72;7250013;19;154872;-58
2022/12/31 06:33:54;;;;;;;;;;;;;;;16.00;62.85;99612.25;7250234;19;153040;-58
2022/12/31 06:36:21;;;;;;;;;;;;;;;15.99;62.58;99605.03;7253932;19;153077;-58
2022/12/31 06:38:48;;;;;;;;;;;;;;;16.00;63.06;99605.84;7247644;19;156597;-58
2022/12/31 06:41:15;;;;;;;;;;;;;;;16.01;62.76;99601.94;7248015;19;155940;-58
2022/12/31 06:43:42;;;;;;;;;;;;;;;16.00;62.97;99594.72;7250706;19;154104;-58
2022/12/31 06:46:10;;;;;;;;;;;;;;;16.02;62.72;99607.19;7247593;19;155323;-58
2022/12/31 06:48:37;;;;;;;;;;;;;;;16.01;62.77;99610.28;7249156;19;154240;-58
2022/12/31 06:51:04;;;;;;;;;;;;;;;16.01;62.92;99621.44;7245710;19;154746;-58
2022/12/31 06:53:34;;;;;;;;;;;;;;;16.01;63.08;99596.38;7249481;19;154086;-58
2022/12/31 06:56:05;;;;;;;;;;;;;;;16.01;63.32;99615.88;7255665;19;155042;-58
2022/12/31 06:58:32;;;;;;;;;;;;;;;16.01;62.93;99619.47;7247330;19;155025;-58
2022/12/31 07:01:05;;;;;;;;;;;;;;;16.01;63.00;99615.88;7246515;19;154313;-58
2022/12/31 07:03:42;;;;;;;;;;;;;;;16.01;63.16;99633.41;7250988;19;153778;-58
2022/12/31 07:06:14;;;;;;;;;;;;;;;16.00;63.28;99642.06;7245744;19;155999;-56
2022/12/31 07:08:41;;;;;;;;;;;;;;;16.01;63.17;99627.00;7245482;19;153803;-56
2022/12/31 07:11:17;;;;;;;;;;;;;;;16.01;63.09;99646.50;7252014;19;154171;-56
2022/12/31 07:13:47;;;;;;;;;;;;;;;16.00;63.35;99637.31;7257462;19;154198;-57
2022/12/31 07:16:14;;;;;;;;;;;;;;;16.01;63.15;99644.56;7254840;19;154819;-56
2022/12/31 07:18:45;;;;;;;;;;;;;;;16.01;63.35;99647.34;7263464;19;155174;-57
2022/12/31 07:21:14;;;;;;;;;;;;;;;16.00;63.19;99640.09;7251126;19;153955;-57
2022/12/31 07:23:41;;;;;;;;;;;;;;;16.00;63.52;99640.09;7254334;19;153917;-56
2022/12/31 07:26:17;;;;;;;;;;;;;;;16.00;63.50;99644.84;7255342;19;153502;-57
2022/12/31 07:28:47;;;;;;;;;;;;;;;16.01;63.50;99649.28;7256566;19;153618;-56
2022/12/31 07:31:14;;;;;;;;;;;;;;;16.00;63.66;99656.81;7254992;19;154168;-56
2022/12/31 07:33:41;;;;;;;;;;;;;;;16.01;63.62;99652.91;7254686;19;153056;-56
2022/12/31 07:36:19;;;;;;;;;;;;;;;16.02;63.66;99662.09;7252314;19;154311;-56
2022/12/31 07:38:57;;;;;;;;;;;;;;;16.01;63.56;99668.78;7255688;19;153906;-56
2022/12/31 07:41:34;;;;;;;;;;;;;;;16.02;63.80;99656.53;7261274;19;152715;-56
2022/12/31 07:44:02;;;;;;;;;;;;;;;16.02;63.76;99667.66;7255644;19;153030;-57
2022/12/31 07:46:39;;;;;;;;;;;;;;;16.02;63.87;99673.22;7257759;19;153709;-57
2022/12/31 07:49:16;;;;;;;;;;;;;;;16.02;63.75;99671.28;7252636;19;153959;-57
2022/12/31 07:51:42;;;;;;;;;;;;;;;16.02;63.92;99684.38;7250134;19;154163;-57
2022/12/31 07:54:09;;;;;;;;;;;;;;;16.02;64.01;99684.38;7254584;19;153952;-57
2022/12/31 07:56:40;;;;;;;;;;;;;;;16.02;64.33;99688.00;7253827;19;154936;-58
2022/12/31 07:59:17;;;;;;;;;;;;;;;16.01;64.23;99691.06;7254983;19;152378;-57
2022/12/31 08:01:59;;;;;;;;;;;;;;;16.03;64.32;99709.13;7255036;19;154697;-57
2022/12/31 08:04:28;;;;;;;;;;;;;;;16.01;63.93;99700.25;7262187;19;153525;-57
2022/12/31 08:06:55;;;;;;;;;;;;;;;16.03;64.09;99699.97;7249356;19;154008;-58
2022/12/31 08:09:30;;;;;;;;;;;;;;;16.03;63.89;99702.75;7252776;19;153900;-58
2022/12/31 08:11:58;;;;;;;;;;;;;;;16.03;64.51;99727.81;7254907;19;153491;-57
2022/12/31 08:14:27;;;;;;;;;;;;;;;16.02;64.10;99718.63;7251386;19;153572;-57
2022/12/31 08:16:55;;;;;;;;;;;;;;;16.03;64.45;99738.97;7250225;19;154528;-58
2022/12/31 08:19:25;;;;;;;;;;;;;;;16.02;64.47;99738.13;7256420;19;153463;-58
2022/12/31 08:22:00;;;;;;;;;;;;;;;16.03;64.20;99744.53;7246862;19;153826;-57
2022/12/31 08:24:35;;;;;;;;;;;;;;;16.03;64.26;99742.53;7254027;19;153973;-57
2022/12/31 08:27:02;;;;;;;;;;;;;;;16.04;64.37;99746.16;7262873;19;152926;-58
2022/12/31 08:29:34;;;;;;;;;;;;;;;16.04;64.35;99743.38;7251763;19;156290;-58
2022/12/31 08:32:11;;;;;;;;;;;;;;;16.05;64.28;99769.28;7255063;19;153466;-58
2022/12/31 08:34:39;;;;;;;;;;;;;;;16.03;64.56;99789.91;7254991;19;152800;-57
2022/12/31 08:37:10;;;;;;;;;;;;;;;16.04;64.31;99757.31;7251438;19;155770;-58
2022/12/31 08:39:47;;;;;;;;;;;;;;;16.05;64.83;99783.22;7253832;19;153814;-57
2022/12/31 08:42:21;;;;;;;;;;;;;;;16.05;64.75;99786.00;7253803;19;153909;-58
2022/12/31 08:44:50;;;;;;;;;;;;;;;16.04;64.64;99776.81;7255422;19;153514;-57
2022/12/31 08:47:29;;;;;;;;;;;;;;;16.05;64.77;99794.34;7263600;19;153969;-58
2022/12/31 08:50:04;;;;;;;;;;;;;;;16.04;64.94;99787.94;7250246;19;153138;-57
2022/12/31 08:52:31;;;;;;;;;;;;;;;16.05;64.95;99797.13;7252455;19;154338;-57
2022/12/31 08:54:58;;;;;;;;;;;;;;;16.05;64.79;99783.22;7253229;19;153443;-58
2022/12/31 08:57:32;;;;;;;;;;;;;;;16.03;64.70;99803.03;7252040;19;156672;-57
2022/12/31 09:00:10;;;;;;;;;;;;;;;16.04;64.90;99813.03;7253428;19;153602;-57
2022/12/31 09:02:39;;;;;;;;;;;;;;;16.06;65.05;99815.50;7255331;19;153788;-58
2022/12/31 09:05:17;;;;;;;;;;;;;;;16.05;65.00;99811.06;7251235;19;154112;-57
2022/12/31 09:07:54;;;;;;;;;;;;;;;16.05;65.12;99809.09;7253785;19;153128;-57
2022/12/31 09:10:29;;;;;;;;;;;;;;;16.04;64.95;99807.44;7256654;19;154035;-58
2022/12/31 09:12:57;;;;;;;;;;;;;;;16.05;64.87;99811.91;7252534;19;153244;-57
2022/12/31 09:15:34;;;;;;;;;;;;;;;16.05;64.95;99802.72;7252591;19;154056;-58
2022/12/31 09:18:02;;;;;;;;;;;;;;;16.05;64.73;99799.91;7251267;19;154325;-57
2022/12/31 09:20:31;;;;;;;;;;;;;;;16.05;65.23;99809.09;7252059;19;153162;-58
2022/12/31 09:23:12;;;;;;;;;;;;;;;16.05;65.16;99811.06;7251519;19;152862;-58
2022/12/31 09:25:50;;;;;;;;;;;;;;;16.04;64.77;99815.81;7249733;19;153159;-57
2022/12/31 09:28:31;;;;;;;;;;;;;;;16.05;64.95;99813.84;7251807;19;153293;-57
2022/12/31 09:31:04;;;;;;;;;;;;;;;16.04;65.28;99818.59;7250970;19;153745;-58
2022/12/31 09:33:34;;;;;;;;;;;;;;;16.05;65.08;99820.25;7256945;19;154049;-58
2022/12/31 09:36:04;;;;;;;;;;;;;;;16.06;65.05;99818.28;7251023;19;154510;-58
2022/12/31 09:38:41;;;;;;;;;;;;;;;16.05;65.05;99825.00;7251929;19;155143;-57
2022/12/31 09:41:14;;;;;;;;;;;;;;;16.05;65.22;99831.41;7251599;19;153213;-58
2022/12/31 09:43:53;;;;;;;;;;;;;;;16.05;65.27;99825.81;7251907;19;152803;-57
2022/12/31 09:46:35;;;;;;;;;;;;;;;16.06;65.13;99835.84;7249786;19;154609;-57
2022/12/31 09:49:07;;;;;;;;;;;;;;;16.05;65.31;99836.13;7252673;19;153853;-57
2022/12/31 09:51:46;;;;;;;;;;;;;;;16.07;65.45;99847.81;7248181;19;153320;-58
2022/12/31 09:54:22;;;;;;;;;;;;;;;16.06;65.35;99848.94;7251748;19;153403;-58
2022/12/31 09:57:01;;;;;;;;;;;;;;;16.06;65.18;99844.19;7258665;19;153945;-58
2022/12/31 09:59:40;;;;;;;;;;;;;;;16.05;65.42;99850.91;7251502;19;154279;-57
2022/12/31 10:02:17;;;;;;;;;;;;;;;16.07;65.38;99842.25;7249921;19;154731;-57
2022/12/31 10:04:56;;;;;;;;;;;;;;;16.06;65.57;99848.94;7250826;19;155187;-58
2022/12/31 10:07:33;;;;;;;;;;;;;;;16.06;65.34;99841.41;7248981;19;154614;-57
2022/12/31 10:10:05;;;;;;;;;;;;;;;16.05;65.32;99825.81;7249273;19;153348;-58
2022/12/31 10:12:42;;;;;;;;;;;;;;;16.06;65.46;99824.69;7251944;19;154046;-57
2022/12/31 10:15:09;;;;;;;;;;;;;;;16.06;65.34;99821.91;7249464;19;153331;-57
2022/12/31 10:17:47;;;;;;;;;;;;;;;16.07;65.58;99828.31;7248284;19;153331;-57
2022/12/31 10:20:15;;;;;;;;;;;;;;;16.05;65.21;99825.81;7254575;19;153450;-57
2022/12/31 10:22:43;;;;;;;;;;;;;;;16.07;65.64;99825.53;7250006;19;154518;-57
2022/12/31 10:25:19;;;;;;;;;;;;;;;16.06;65.47;99830.28;7250136;19;154394;-58
2022/12/31 10:28:05;;;;;;;;;;;;;;;16.06;65.13;99821.09;7249783;19;155302;-58
2022/12/31 10:30:34;;;;;;;;;;;;;;;16.06;65.39;99823.88;7249967;19;154696;-58
2022/12/31 10:33:10;;;;;;;;;;;;;;;16.05;65.40;99823.03;7250010;19;154257;-57
2022/12/31 10:35:38;;;;;;;;;;;;;;;16.06;65.52;99830.28;7249169;19;153408;-58
2022/12/31 10:38:05;;;;;;;;;;;;;;;16.07;65.39;99833.88;7250119;19;152945;-58
2022/12/31 10:40:42;;;;;;;;;;;;;;;16.06;65.19;99835.84;7251918;19;152967;-58
2022/12/31 10:43:19;;;;;;;;;;;;;;;16.06;65.36;99833.06;7257476;19;154786;-58
2022/12/31 10:45:56;;;;;;;;;;;;;;;16.06;65.22;99824.69;7251136;19;153596;-58
2022/12/31 10:48:32;;;;;;;;;;;;;;;16.06;65.42;99818.28;7249205;19;155246;-58
2022/12/31 10:51:09;;;;;;;;;;;;;;;16.06;65.63;99818.28;7246144;19;154356;-57
2022/12/31 10:53:36;;;;;;;;;;;;;;;16.06;65.35;99821.91;7249669;19;154191;-57
2022/12/31 10:56:13;;;;;;;;;;;;;;;16.06;65.39;99816.34;7247863;19;154542;-58
2022/12/31 10:58:40;;;;;;;;;;;;;;;16.07;65.55;99819.97;7249800;19;152190;-57
2022/12/31 11:01:10;;;;;;;;;;;;;;;16.07;65.53;99823.56;7247204;19;153521;-58
2022/12/31 11:03:57;;;;;;;;;;;;;;;16.07;65.38;99833.88;7256180;19;153986;-57
2022/12/31 11:06:40;;;;;;;;;;;;;;;16.08;65.57;99825.19;7244199;19;153805;-58
2022/12/31 11:09:17;;;;;;;;;;;;;;;16.08;65.37;99822.41;7245650;19;154453;-58
2022/12/31 11:11:57;;;;;;;;;;;;;;;16.07;65.48;99812.44;7247314;19;152999;-58
2022/12/31 11:14:52;;;;;;;;;;;;;;;16.07;65.39;99809.66;7248093;19;153575;-58
2022/12/31 11:17:28;;;;;;;;;;;;;;;16.09;65.32;99812.09;7248566;19;153905;-57
2022/12/31 11:20:04;;;;;;;;;;;;;;;16.07;65.52;99812.44;7248640;19;153387;-58
2022/12/31 11:22:35;;;;;;;;;;;;;;;16.08;65.73;99822.41;7247960;19;153684;-58
2022/12/31 11:25:05;;;;;;;;;;;;;;;16.09;65.63;99829.66;7247570;19;153927;-58
2022/12/31 11:27:42;;;;;;;;;;;;;;;16.09;65.66;99834.38;7254446;19;153106;-58
2022/12/31 11:30:25;;;;;;;;;;;;;;;16.08;65.67;99822.41;7248789;19;154325;-57
2022/12/31 11:33:03;;;;;;;;;;;;;;;16.07;65.95;99818.00;7249410;19;153137;-58
2022/12/31 11:35:40;;;;;;;;;;;;;;;16.09;65.90;99818.50;7246575;19;153095;-57
2022/12/31 11:38:19;;;;;;;;;;;;;;;16.07;65.89;99819.97;7246614;19;154165;-57
2022/12/31 11:41:09;;;;;;;;;;;;;;;16.07;65.83;99801.28;7245226;19;154196;-58
2022/12/31 11:43:52;;;;;;;;;;;;;;;16.07;66.06;99812.44;7249469;19;154675;-57
2022/12/31 11:46:32;;;;;;;;;;;;;;;16.06;65.88;99802.41;7246213;19;154218;-57
2022/12/31 11:49:19;;;;;;;;;;;;;;;16.07;65.76;99803.25;7248562;19;154431;-58
2022/12/31 11:51:58;;;;;;;;;;;;;;;16.09;65.74;99804.56;7247097;19;155634;-57
2022/12/31 11:54:27;;;;;;;;;;;;;;;16.08;65.96;99805.69;7249966;19;153493;-57
2022/12/31 11:57:16;;;;;;;;;;;;;;;16.09;65.93;99803.75;7254851;19;153757;-58
2022/12/31 11:59:45;;;;;;;;;;;;;;;16.08;66.15;99794.56;7252808;19;157024;-58
2022/12/31 12:02:16;;;;;;;;;;;;;;;16.08;66.05;99783.41;7255139;19;152036;-57
2022/12/31 12:04:48;;;;;;;;;;;;;;;16.08;66.19;99780.63;7256468;19;153154;-57
2022/12/31 12:07:18;;;;;;;;;;;;;;;16.08;65.97;99777.84;7250956;19;154499;-57
2022/12/31 12:09:48;;;;;;;;;;;;;;;16.09;66.03;99782.28;7254887;19;154428;-57
2022/12/31 12:12:19;;;;;;;;;;;;;;;16.08;66.37;99780.63;7254602;19;153064;-58
2022/12/31 12:14:50;;;;;;;;;;;;;;;16.07;66.44;99773.44;7261885;19;154149;-58
2022/12/31 12:17:31;;;;;;;;;;;;;;;16.07;66.18;99773.44;7252269;19;154928;-58
2022/12/31 12:20:01;;;;;;;;;;;;;;;16.07;66.37;99759.50;7252576;19;155049;-58
2022/12/31 12:22:31;;;;;;;;;;;;;;;16.07;66.11;99756.72;7253384;19;152403;-57
2022/12/31 12:25:04;;;;;;;;;;;;;;;16.07;66.20;99762.28;7251797;19;153665;-58
2022/12/31 12:27:33;;;;;;;;;;;;;;;16.07;66.04;99756.72;7253113;19;154953;-57
2022/12/31 12:30:12;;;;;;;;;;;;;;;16.09;66.35;99756.38;7252379;19;152910;-58
2022/12/31 12:32:51;;;;;;;;;;;;;;;16.08;66.19;99747.19;7254678;19;155330;-57
2022/12/31 12:35:26;;;;;;;;;;;;;;;16.09;66.08;99761.97;7251079;19;155301;-57
2022/12/31 12:38:04;;;;;;;;;;;;;;;16.07;66.24;99750.31;7259019;19;153988;-57
2022/12/31 12:40:33;;;;;;;;;;;;;;;16.08;66.41;99738.84;7252194;19;154779;-57
2022/12/31 12:43:02;;;;;;;;;;;;;;;16.08;66.39;99738.84;7251177;19;154052;-57
2022/12/31 12:45:47;;;;;;;;;;;;;;;16.07;66.22;99737.22;7254835;19;153969;-57
2022/12/31 12:48:22;;;;;;;;;;;;;;;16.08;66.51;99744.41;7254274;19;154849;-57
2022/12/31 12:50:49;;;;;;;;;;;;;;;16.08;66.36;99730.47;7250778;19;152950;-58
2022/12/31 12:53:17;;;;;;;;;;;;;;;16.07;66.50;99731.63;7251751;19;153926;-58
2022/12/31 12:55:56;;;;;;;;;;;;;;;16.08;66.77;99744.41;7250934;19;154728;-58
2022/12/31 12:58:33;;;;;;;;;;;;;;;16.07;66.81;99737.22;7252612;19;153798;-57
2022/12/31 13:01:02;;;;;;;;;;;;;;;16.07;66.62;99742.78;7260822;19;154570;-57
2022/12/31 13:03:43;;;;;;;;;;;;;;;16.09;66.66;99748.03;7255917;19;154049;-58
2022/12/31 13:06:46;;;;;;;;;;;;;;;16.08;67.25;99747.19;7247647;19;153882;-58